sensor_id;sensor_type;location;lat;lon;timestamp;pressure;altitude;pressure_sealevel;temperature;humidity
61394;BME280;48555;50.952;-0.120;2024-03-06T00:00:21;101279.47;;;8.87;77.69
61394;BME280;48555;50.952;-0.120;2024-03-06T00:02:46;101285.69;;;8.84;77.63
61394;BME280;48555;50.952;-0.120;2024-03-06T00:05:12;101276.28;;;8.82;77.65
61394;BME280;48555;50.952;-0.120;2024-03-06T00:07:37;101280.00;;;8.78;77.57
61394;BME280;48555;50.952;-0.120;2024-03-06T00:10:03;101278.97;;;8.80;77.55
61394;BME280;48555;50.952;-0.120;2024-03-06T00:12:30;101278.31;;;8.77;77.45
61394;BME280;48555;50.952;-0.120;2024-03-06T00:14:55;101293.97;;;8.77;77.68
61394;BME280;48555;50.952;-0.120;2024-03-06T00:17:20;101299.34;;;8.74;77.60
61394;BME280;48555;50.952;-0.120;2024-03-06T00:19:46;101294.19;;;8.72;77.75
61394;BME280;48555;50.952;-0.120;2024-03-06T00:22:11;101291.75;;;8.69;77.60
61394;BME280;48555;50.952;-0.120;2024-03-06T00:24:36;101299.19;;;8.77;77.70
61394;BME280;48555;50.952;-0.120;2024-03-06T00:27:02;101303.22;;;8.82;77.46
61394;BME280;48555;50.952;-0.120;2024-03-06T00:29:29;101299.50;;;8.86;77.52
61394;BME280;48555;50.952;-0.120;2024-03-06T00:31:54;101291.50;;;8.90;77.45
61394;BME280;48555;50.952;-0.120;2024-03-06T00:34:20;101297.56;;;8.90;77.76
61394;BME280;48555;50.952;-0.120;2024-03-06T00:36:45;101283.19;;;8.83;77.87
61394;BME280;48555;50.952;-0.120;2024-03-06T00:39:11;101299.22;;;8.91;77.85
61394;BME280;48555;50.952;-0.120;2024-03-06T00:41:36;101308.00;;;8.90;78.08
61394;BME280;48555;50.952;-0.120;2024-03-06T00:44:02;101307.41;;;8.85;78.51
61394;BME280;48555;50.952;-0.120;2024-03-06T00:46:28;101307.72;;;8.79;78.73
61394;BME280;48555;50.952;-0.120;2024-03-06T00:48:53;101308.25;;;8.70;79.28
61394;BME280;48555;50.952;-0.120;2024-03-06T00:51:19;101305.63;;;8.70;79.34
61394;BME280;48555;50.952;-0.120;2024-03-06T00:53:44;101315.41;;;8.66;79.75
61394;BME280;48555;50.952;-0.120;2024-03-06T00:56:10;101309.53;;;8.62;79.87
61394;BME280;48555;50.952;-0.120;2024-03-06T00:58:35;101319.19;;;8.60;80.06
61394;BME280;48555;50.952;-0.120;2024-03-06T01:01:00;101313.78;;;8.63;80.18
61394;BME280;48555;50.952;-0.120;2024-03-06T01:03:26;101313.56;;;8.68;80.24
61394;BME280;48555;50.952;-0.120;2024-03-06T01:05:51;101305.38;;;8.58;80.09
61394;BME280;48555;50.952;-0.120;2024-03-06T01:08:21;101307.97;;;8.58;80.21
61394;BME280;48555;50.952;-0.120;2024-03-06T01:10:46;101313.19;;;8.58;80.27
61394;BME280;48555;50.952;-0.120;2024-03-06T01:13:12;101305.38;;;8.58;80.31
61394;BME280;48555;50.952;-0.120;2024-03-06T01:15:38;101308.16;;;8.55;80.27
61394;BME280;48555;50.952;-0.120;2024-03-06T01:18:04;101313.13;;;8.60;80.06
61394;BME280;48555;50.952;-0.120;2024-03-06T01:20:29;101317.41;;;8.61;79.81
61394;BME280;48555;50.952;-0.120;2024-03-06T01:22:54;101308.75;;;8.60;79.74
61394;BME280;48555;50.952;-0.120;2024-03-06T01:25:20;101312.03;;;8.64;79.42
61394;BME280;48555;50.952;-0.120;2024-03-06T01:27:47;101318.59;;;8.71;79.22
61394;BME280;48555;50.952;-0.120;2024-03-06T01:30:13;101320.38;;;8.71;79.11
61394;BME280;48555;50.952;-0.120;2024-03-06T01:32:38;101325.31;;;8.75;78.89
61394;BME280;48555;50.952;-0.120;2024-03-06T01:35:04;101316.31;;;8.81;78.59
61394;BME280;48555;50.952;-0.120;2024-03-06T01:37:30;101321.47;;;8.82;78.42
61394;BME280;48555;50.952;-0.120;2024-03-06T01:39:55;101310.94;;;8.84;78.14
61394;BME280;48555;50.952;-0.120;2024-03-06T01:42:21;101310.75;;;8.87;77.85
61394;BME280;48555;50.952;-0.120;2024-03-06T01:44:46;101311.53;;;8.89;77.98
61394;BME280;48555;50.952;-0.120;2024-03-06T01:47:11;101310.00;;;8.85;77.57
61394;BME280;48555;50.952;-0.120;2024-03-06T01:49:37;101312.78;;;8.82;77.48
61394;BME280;48555;50.952;-0.120;2024-03-06T01:52:03;101317.66;;;8.72;77.83
61394;BME280;48555;50.952;-0.120;2024-03-06T01:54:30;101313.13;;;8.60;78.40
61394;BME280;48555;50.952;-0.120;2024-03-06T01:56:57;101320.28;;;8.56;78.46
61394;BME280;48555;50.952;-0.120;2024-03-06T01:59:24;101323.13;;;8.52;78.45
61394;BME280;48555;50.952;-0.120;2024-03-06T02:01:52;101311.41;;;8.43;78.43
61394;BME280;48555;50.952;-0.120;2024-03-06T02:04:19;101309.22;;;8.35;78.69
61394;BME280;48555;50.952;-0.120;2024-03-06T02:06:44;101310.38;;;8.30;79.09
61394;BME280;48555;50.952;-0.120;2024-03-06T02:09:10;101306.72;;;8.16;79.38
61394;BME280;48555;50.952;-0.120;2024-03-06T02:11:37;101320.69;;;8.15;79.71
61394;BME280;48555;50.952;-0.120;2024-03-06T02:14:02;101321.91;;;8.08;79.95
61394;BME280;48555;50.952;-0.120;2024-03-06T02:16:28;101316.78;;;8.07;80.08
61394;BME280;48555;50.952;-0.120;2024-03-06T02:18:54;101320.47;;;8.03;80.13
61394;BME280;48555;50.952;-0.120;2024-03-06T02:21:21;101325.59;;;8.04;80.29
61394;BME280;48555;50.952;-0.120;2024-03-06T02:23:47;101320.47;;;8.03;80.23
61394;BME280;48555;50.952;-0.120;2024-03-06T02:26:12;101317.69;;;8.06;80.10
61394;BME280;48555;50.952;-0.120;2024-03-06T02:28:38;101328.03;;;8.07;79.92
61394;BME280;48555;50.952;-0.120;2024-03-06T02:31:03;101326.22;;;8.09;79.74
61394;BME280;48555;50.952;-0.120;2024-03-06T02:33:31;101325.34;;;8.09;79.58
61394;BME280;48555;50.952;-0.120;2024-03-06T02:35:56;101318.56;;;8.06;79.64
61394;BME280;48555;50.952;-0.120;2024-03-06T02:38:22;101319.41;;;8.07;79.64
61394;BME280;48555;50.952;-0.120;2024-03-06T02:40:47;101317.63;;;8.07;79.46
61394;BME280;48555;50.952;-0.120;2024-03-06T02:43:13;101315.03;;;8.07;79.13
61394;BME280;48555;50.952;-0.120;2024-03-06T02:45:38;101317.53;;;8.09;78.94
61394;BME280;48555;50.952;-0.120;2024-03-06T02:48:04;101316.53;;;8.11;78.65
61394;BME280;48555;50.952;-0.120;2024-03-06T02:50:30;101318.41;;;8.09;78.60
61394;BME280;48555;50.952;-0.120;2024-03-06T02:52:55;101312.56;;;8.04;78.53
61394;BME280;48555;50.952;-0.120;2024-03-06T02:55:22;101317.16;;;7.99;78.80
61394;BME280;48555;50.952;-0.120;2024-03-06T02:57:48;101312.22;;;7.94;78.91
61394;BME280;48555;50.952;-0.120;2024-03-06T03:00:14;101301.88;;;7.93;78.89
61394;BME280;48555;50.952;-0.120;2024-03-06T03:02:41;101298.34;;;7.94;78.61
61394;BME280;48555;50.952;-0.120;2024-03-06T03:05:07;101298.66;;;7.88;78.63
61394;BME280;48555;50.952;-0.120;2024-03-06T03:07:32;101300.41;;;7.87;78.63
61394;BME280;48555;50.952;-0.120;2024-03-06T03:09:57;101305.25;;;7.78;78.25
61394;BME280;48555;50.952;-0.120;2024-03-06T03:12:23;101299.59;;;7.69;78.13
61394;BME280;48555;50.952;-0.120;2024-03-06T03:14:48;101308.19;;;7.71;78.04
61394;BME280;48555;50.952;-0.120;2024-03-06T03:17:13;101309.03;;;7.72;77.61
61394;BME280;48555;50.952;-0.120;2024-03-06T03:19:40;101302.13;;;7.71;77.73
61394;BME280;48555;50.952;-0.120;2024-03-06T03:22:06;101304.66;;;7.72;77.36
61394;BME280;48555;50.952;-0.120;2024-03-06T03:24:31;101310.63;;;7.74;77.36
61394;BME280;48555;50.952;-0.120;2024-03-06T03:26:56;101289.66;;;7.60;76.67
61394;BME280;48555;50.952;-0.120;2024-03-06T03:29:22;101305.09;;;7.81;76.61
61394;BME280;48555;50.952;-0.120;2024-03-06T03:31:47;101310.69;;;7.90;76.30
61394;BME280;48555;50.952;-0.120;2024-03-06T03:34:13;101315.88;;;7.90;76.21
61394;BME280;48555;50.952;-0.120;2024-03-06T03:36:44;101309.00;;;7.89;76.35
61394;BME280;48555;50.952;-0.120;2024-03-06T03:39:14;101311.09;;;7.83;76.34
61394;BME280;48555;50.952;-0.120;2024-03-06T03:41:46;101316.75;;;7.73;76.49
61394;BME280;48555;50.952;-0.120;2024-03-06T03:44:15;101309.53;;;7.61;76.71
61394;BME280;48555;50.952;-0.120;2024-03-06T03:46:41;101311.94;;;7.48;77.18
61394;BME280;48555;50.952;-0.120;2024-03-06T03:49:07;101312.28;;;7.41;77.26
61394;BME280;48555;50.952;-0.120;2024-03-06T03:51:34;101318.44;;;7.40;77.21
61394;BME280;48555;50.952;-0.120;2024-03-06T03:54:00;101321.25;;;7.35;77.13
61394;BME280;48555;50.952;-0.120;2024-03-06T03:56:25;101320.84;;;7.25;77.63
61394;BME280;48555;50.952;-0.120;2024-03-06T03:58:51;101322.22;;;7.15;77.86
61394;BME280;48555;50.952;-0.120;2024-03-06T04:01:16;101321.81;;;7.05;78.16
61394;BME280;48555;50.952;-0.120;2024-03-06T04:03:41;101318.66;;;6.99;78.41
61394;BME280;48555;50.952;-0.120;2024-03-06T04:06:08;101319.94;;;6.90;78.74
61394;BME280;48555;50.952;-0.120;2024-03-06T04:08:33;101317.72;;;6.82;78.84
61394;BME280;48555;50.952;-0.120;2024-03-06T04:10:59;101323.75;;;6.83;79.09
61394;BME280;48555;50.952;-0.120;2024-03-06T04:13:25;101328.72;;;6.88;79.12
61394;BME280;48555;50.952;-0.120;2024-03-06T04:15:50;101325.13;;;6.90;78.92
61394;BME280;48555;50.952;-0.120;2024-03-06T04:18:16;101316.66;;;6.87;79.04
61394;BME280;48555;50.952;-0.120;2024-03-06T04:20:41;101323.66;;;6.85;79.28
61394;BME280;48555;50.952;-0.120;2024-03-06T04:23:07;101324.38;;;6.88;79.58
61394;BME280;48555;50.952;-0.120;2024-03-06T04:25:32;101321.75;;;6.88;79.51
61394;BME280;48555;50.952;-0.120;2024-03-06T04:27:57;101331.19;;;6.91;79.50
61394;BME280;48555;50.952;-0.120;2024-03-06T04:30:23;101323.47;;;6.89;79.50
61394;BME280;48555;50.952;-0.120;2024-03-06T04:32:48;101328.66;;;6.89;79.72
61394;BME280;48555;50.952;-0.120;2024-03-06T04:35:14;101334.75;;;6.88;79.71
61394;BME280;48555;50.952;-0.120;2024-03-06T04:37:40;101335.91;;;6.82;80.05
61394;BME280;48555;50.952;-0.120;2024-03-06T04:40:05;101333.38;;;6.81;80.12
61394;BME280;48555;50.952;-0.120;2024-03-06T04:42:36;101333.56;;;6.76;80.42
61394;BME280;48555;50.952;-0.120;2024-03-06T04:45:10;101344.75;;;6.78;80.67
61394;BME280;48555;50.952;-0.120;2024-03-06T04:47:36;101351.66;;;6.79;80.77
61394;BME280;48555;50.952;-0.120;2024-03-06T04:50:01;101351.66;;;6.79;80.89
61394;BME280;48555;50.952;-0.120;2024-03-06T04:52:26;101351.03;;;6.74;80.89
61394;BME280;48555;50.952;-0.120;2024-03-06T04:54:52;101359.56;;;6.76;81.17
61394;BME280;48555;50.952;-0.120;2024-03-06T04:57:17;101363.03;;;6.77;81.02
61394;BME280;48555;50.952;-0.120;2024-03-06T04:59:43;101356.97;;;6.76;80.45
61394;BME280;48555;50.952;-0.120;2024-03-06T05:02:08;101357.75;;;6.78;80.63
61394;BME280;48555;50.952;-0.120;2024-03-06T05:04:33;101367.25;;;6.79;80.51
61394;BME280;48555;50.952;-0.120;2024-03-06T05:06:59;101363.50;;;6.85;80.11
61394;BME280;48555;50.952;-0.120;2024-03-06T05:09:24;101371.38;;;6.83;79.86
61394;BME280;48555;50.952;-0.120;2024-03-06T05:11:49;101377.00;;;6.74;80.46
61394;BME280;48555;50.952;-0.120;2024-03-06T05:14:16;101373.13;;;6.64;80.42
61394;BME280;48555;50.952;-0.120;2024-03-06T05:16:41;101368.34;;;6.55;80.85
61394;BME280;48555;50.952;-0.120;2024-03-06T05:19:06;101378.69;;;6.56;81.17
61394;BME280;48555;50.952;-0.120;2024-03-06T05:21:32;101383.03;;;6.56;81.21
61394;BME280;48555;50.952;-0.120;2024-03-06T05:23:58;101379.38;;;6.60;81.15
61394;BME280;48555;50.952;-0.120;2024-03-06T05:26:23;101385.13;;;6.67;80.79
61394;BME280;48555;50.952;-0.120;2024-03-06T05:28:49;101391.19;;;6.67;80.59
61394;BME280;48555;50.952;-0.120;2024-03-06T05:31:18;101390.34;;;6.67;80.71
61394;BME280;48555;50.952;-0.120;2024-03-06T05:33:47;101389.63;;;6.63;80.73
61394;BME280;48555;50.952;-0.120;2024-03-06T05:36:12;101389.91;;;6.57;80.88
61394;BME280;48555;50.952;-0.120;2024-03-06T05:38:41;101389.97;;;6.55;81.22
61394;BME280;48555;50.952;-0.120;2024-03-06T05:41:07;101385.84;;;6.51;81.31
61394;BME280;48555;50.952;-0.120;2024-03-06T05:43:33;101393.53;;;6.53;81.42
61394;BME280;48555;50.952;-0.120;2024-03-06T05:45:59;101405.00;;;6.49;81.32
61394;BME280;48555;50.952;-0.120;2024-03-06T05:48:25;101391.34;;;6.44;81.48
61394;BME280;48555;50.952;-0.120;2024-03-06T05:50:50;101395.66;;;6.45;81.74
61394;BME280;48555;50.952;-0.120;2024-03-06T05:53:15;101402.94;;;6.36;81.75
61394;BME280;48555;50.952;-0.120;2024-03-06T05:55:41;101403.22;;;6.30;82.03
61394;BME280;48555;50.952;-0.120;2024-03-06T05:58:06;101406.81;;;6.26;82.06
61394;BME280;48555;50.952;-0.120;2024-03-06T06:00:31;101408.66;;;6.24;82.46
61394;BME280;48555;50.952;-0.120;2024-03-06T06:02:58;101403.66;;;6.20;82.60
61394;BME280;48555;50.952;-0.120;2024-03-06T06:05:24;101410.47;;;6.22;82.67
61394;BME280;48555;50.952;-0.120;2024-03-06T06:07:50;101413.84;;;6.24;82.66
61394;BME280;48555;50.952;-0.120;2024-03-06T06:10:16;101424.16;;;6.26;82.90
61394;BME280;48555;50.952;-0.120;2024-03-06T06:12:41;101414.56;;;6.28;82.71
61394;BME280;48555;50.952;-0.120;2024-03-06T06:15:07;101422.19;;;6.32;82.62
61394;BME280;48555;50.952;-0.120;2024-03-06T06:17:33;101423.00;;;6.33;82.48
61394;BME280;48555;50.952;-0.120;2024-03-06T06:19:59;101423.16;;;6.30;82.58
61394;BME280;48555;50.952;-0.120;2024-03-06T06:22:27;101419.56;;;6.32;82.48
61394;BME280;48555;50.952;-0.120;2024-03-06T06:24:52;101432.63;;;6.31;82.50
61394;BME280;48555;50.952;-0.120;2024-03-06T06:27:20;101432.09;;;6.23;82.33
61394;BME280;48555;50.952;-0.120;2024-03-06T06:29:45;101436.72;;;6.16;82.68
61394;BME280;48555;50.952;-0.120;2024-03-06T06:32:10;101443.72;;;6.14;83.09
61394;BME280;48555;50.952;-0.120;2024-03-06T06:34:36;101446.97;;;6.19;82.79
61394;BME280;48555;50.952;-0.120;2024-03-06T06:37:01;101446.13;;;6.19;82.55
61394;BME280;48555;50.952;-0.120;2024-03-06T06:39:27;101433.59;;;6.08;82.77
61394;BME280;48555;50.952;-0.120;2024-03-06T06:41:52;101452.22;;;6.18;82.86
61394;BME280;48555;50.952;-0.120;2024-03-06T06:44:17;101455.69;;;6.18;83.11
61394;BME280;48555;50.952;-0.120;2024-03-06T06:46:43;101462.59;;;6.18;82.95
61394;BME280;48555;50.952;-0.120;2024-03-06T06:49:08;101454.03;;;6.16;82.96
61394;BME280;48555;50.952;-0.120;2024-03-06T06:51:34;101461.00;;;6.15;82.83
61394;BME280;48555;50.952;-0.120;2024-03-06T06:54:00;101471.44;;;6.13;82.88
61394;BME280;48555;50.952;-0.120;2024-03-06T06:56:26;101481.22;;;6.07;83.13
61394;BME280;48555;50.952;-0.120;2024-03-06T06:58:52;101467.06;;;5.94;82.86
61394;BME280;48555;50.952;-0.120;2024-03-06T07:01:17;101488.84;;;5.89;83.13
61394;BME280;48555;50.952;-0.120;2024-03-06T07:03:43;101490.88;;;5.81;83.20
61394;BME280;48555;50.952;-0.120;2024-03-06T07:06:08;101482.53;;;5.73;83.59
61394;BME280;48555;50.952;-0.120;2024-03-06T07:08:33;101487.94;;;5.68;83.52
61394;BME280;48555;50.952;-0.120;2024-03-06T07:10:59;101481.94;;;5.66;83.92
61394;BME280;48555;50.952;-0.120;2024-03-06T07:13:24;101489.63;;;5.69;84.14
61394;BME280;48555;50.952;-0.120;2024-03-06T07:15:49;101498.19;;;5.72;84.15
61394;BME280;48555;50.952;-0.120;2024-03-06T07:18:15;101486.09;;;5.70;84.21
61394;BME280;48555;50.952;-0.120;2024-03-06T07:20:40;101499.44;;;5.61;84.23
61394;BME280;48555;50.952;-0.120;2024-03-06T07:23:06;101495.31;;;5.56;84.24
61394;BME280;48555;50.952;-0.120;2024-03-06T07:25:31;101497.41;;;5.47;84.29
61394;BME280;48555;50.952;-0.120;2024-03-06T07:27:57;101500.34;;;5.38;84.42
61394;BME280;48555;50.952;-0.120;2024-03-06T07:30:22;101495.56;;;5.28;84.46
61394;BME280;48555;50.952;-0.120;2024-03-06T07:32:47;101502.72;;;5.21;84.85
61394;BME280;48555;50.952;-0.120;2024-03-06T07:35:13;101504.63;;;5.16;84.97
61394;BME280;48555;50.952;-0.120;2024-03-06T07:37:38;101516.19;;;5.07;85.48
61394;BME280;48555;50.952;-0.120;2024-03-06T07:40:04;101511.22;;;5.01;85.70
61394;BME280;48555;50.952;-0.120;2024-03-06T07:42:30;101511.44;;;4.95;86.12
61394;BME280;48555;50.952;-0.120;2024-03-06T07:44:55;101518.38;;;4.94;86.05
61394;BME280;48555;50.952;-0.120;2024-03-06T07:47:20;101511.38;;;4.96;86.67
61394;BME280;48555;50.952;-0.120;2024-03-06T07:49:46;101515.69;;;4.97;86.74
61394;BME280;48555;50.952;-0.120;2024-03-06T07:52:12;101521.63;;;4.99;86.69
61394;BME280;48555;50.952;-0.120;2024-03-06T07:54:37;101519.81;;;5.03;86.90
61394;BME280;48555;50.952;-0.120;2024-03-06T07:57:04;101526.66;;;5.04;87.14
61394;BME280;48555;50.952;-0.120;2024-03-06T07:59:30;101525.03;;;5.01;86.99
61394;BME280;48555;50.952;-0.120;2024-03-06T08:01:55;101529.28;;;5.03;87.30
61394;BME280;48555;50.952;-0.120;2024-03-06T08:04:21;101525.75;;;5.05;87.25
61394;BME280;48555;50.952;-0.120;2024-03-06T08:06:47;101529.28;;;5.03;87.42
61394;BME280;48555;50.952;-0.120;2024-03-06T08:09:12;101532.88;;;5.00;87.67
61394;BME280;48555;50.952;-0.120;2024-03-06T08:11:37;101529.38;;;5.01;87.67
61394;BME280;48555;50.952;-0.120;2024-03-06T08:14:03;101530.09;;;5.05;87.82
61394;BME280;48555;50.952;-0.120;2024-03-06T08:16:28;101526.47;;;5.09;88.00
61394;BME280;48555;50.952;-0.120;2024-03-06T08:18:55;101528.75;;;5.18;88.31
61394;BME280;48555;50.952;-0.120;2024-03-06T08:21:21;101524.91;;;5.28;88.29
61394;BME280;48555;50.952;-0.120;2024-03-06T08:23:48;101531.34;;;5.41;88.27
61394;BME280;48555;50.952;-0.120;2024-03-06T08:26:14;101532.69;;;5.52;88.03
61394;BME280;48555;50.952;-0.120;2024-03-06T08:28:39;101533.16;;;5.61;88.21
61394;BME280;48555;50.952;-0.120;2024-03-06T08:31:05;101545.91;;;5.67;88.22
61394;BME280;48555;50.952;-0.120;2024-03-06T08:33:30;101552.63;;;5.73;87.99
61394;BME280;48555;50.952;-0.120;2024-03-06T08:35:56;101550.94;;;5.72;88.13
61394;BME280;48555;50.952;-0.120;2024-03-06T08:38:23;101550.97;;;5.70;88.08
61394;BME280;48555;50.952;-0.120;2024-03-06T08:40:48;101560.50;;;5.70;88.32
61394;BME280;48555;50.952;-0.120;2024-03-06T08:43:14;101563.13;;;5.70;88.49
61394;BME280;48555;50.952;-0.120;2024-03-06T08:45:40;101559.56;;;5.73;88.86
61394;BME280;48555;50.952;-0.120;2024-03-06T08:48:06;101556.72;;;5.79;88.53
61394;BME280;48555;50.952;-0.120;2024-03-06T08:50:31;101564.38;;;5.82;88.79
61394;BME280;48555;50.952;-0.120;2024-03-06T08:52:57;101556.47;;;5.85;88.82
61394;BME280;48555;50.952;-0.120;2024-03-06T08:55:22;101564.00;;;5.92;89.03
61394;BME280;48555;50.952;-0.120;2024-03-06T08:57:47;101557.78;;;5.97;88.95
61394;BME280;48555;50.952;-0.120;2024-03-06T09:00:13;101567.03;;;6.04;89.33
61394;BME280;48555;50.952;-0.120;2024-03-06T09:02:39;101569.28;;;6.13;89.35
61394;BME280;48555;50.952;-0.120;2024-03-06T09:05:08;101568.91;;;6.22;89.65
61394;BME280;48555;50.952;-0.120;2024-03-06T09:07:38;101576.31;;;6.31;89.59
61394;BME280;48555;50.952;-0.120;2024-03-06T09:10:06;101571.91;;;6.33;89.58
61394;BME280;48555;50.952;-0.120;2024-03-06T09:12:32;101568.22;;;6.39;90.24
61394;BME280;48555;50.952;-0.120;2024-03-06T09:14:57;101577.25;;;6.51;90.14
61394;BME280;48555;50.952;-0.120;2024-03-06T09:17:25;101573.31;;;6.63;90.16
61394;BME280;48555;50.952;-0.120;2024-03-06T09:19:50;101578.03;;;6.73;90.09
61394;BME280;48555;50.952;-0.120;2024-03-06T09:22:16;101576.75;;;6.83;90.57
61394;BME280;48555;50.952;-0.120;2024-03-06T09:24:42;101574.53;;;6.95;90.28
61394;BME280;48555;50.952;-0.120;2024-03-06T09:27:08;101580.19;;;7.04;90.85
61394;BME280;48555;50.952;-0.120;2024-03-06T09:29:33;101583.47;;;7.28;90.80
61394;BME280;48555;50.952;-0.120;2024-03-06T09:31:58;101585.97;;;7.50;91.16
61394;BME280;48555;50.952;-0.120;2024-03-06T09:34:24;101586.78;;;7.70;91.38
61394;BME280;48555;50.952;-0.120;2024-03-06T09:36:50;101594.38;;;7.93;91.70
61394;BME280;48555;50.952;-0.120;2024-03-06T09:39:17;101585.47;;;8.16;91.52
61394;BME280;48555;50.952;-0.120;2024-03-06T09:41:46;101594.25;;;8.33;91.52
61394;BME280;48555;50.952;-0.120;2024-03-06T09:44:12;101594.47;;;8.47;91.51
61394;BME280;48555;50.952;-0.120;2024-03-06T09:46:48;101598.59;;;8.51;91.00
61394;BME280;48555;50.952;-0.120;2024-03-06T09:49:15;101601.81;;;8.56;90.24
61394;BME280;48555;50.952;-0.120;2024-03-06T09:51:49;101588.16;;;8.51;90.35
61394;BME280;48555;50.952;-0.120;2024-03-06T09:54:19;101608.09;;;8.70;89.95
61394;BME280;48555;50.952;-0.120;2024-03-06T09:56:46;101609.50;;;8.77;90.12
61394;BME280;48555;50.952;-0.120;2024-03-06T09:59:12;101608.94;;;8.87;89.94
61394;BME280;48555;50.952;-0.120;2024-03-06T10:01:55;101605.53;;;9.03;89.98
61394;BME280;48555;50.952;-0.120;2024-03-06T10:04:27;101606.22;;;9.24;90.42
61394;BME280;48555;50.952;-0.120;2024-03-06T10:06:57;101595.97;;;9.37;90.28
61394;BME280;48555;50.952;-0.120;2024-03-06T10:09:24;101600.78;;;9.44;89.96
61394;BME280;48555;50.952;-0.120;2024-03-06T10:11:50;101602.75;;;9.57;89.87
61394;BME280;48555;50.952;-0.120;2024-03-06T10:14:18;101608.06;;;9.71;89.72
61394;BME280;48555;50.952;-0.120;2024-03-06T10:16:54;101604.78;;;9.83;89.46
61394;BME280;48555;50.952;-0.120;2024-03-06T10:19:22;101600.66;;;9.95;89.43
61394;BME280;48555;50.952;-0.120;2024-03-06T10:21:48;101607.03;;;10.05;88.67
61394;BME280;48555;50.952;-0.120;2024-03-06T10:24:27;101600.47;;;10.14;88.72
61394;BME280;48555;50.952;-0.120;2024-03-06T10:26:57;101597.00;;;10.29;88.26
61394;BME280;48555;50.952;-0.120;2024-03-06T10:29:25;101606.84;;;10.40;87.95
61394;BME280;48555;50.952;-0.120;2024-03-06T10:31:51;101602.22;;;10.45;87.77
61394;BME280;48555;50.952;-0.120;2024-03-06T10:34:17;101612.63;;;10.61;87.61
61394;BME280;48555;50.952;-0.120;2024-03-06T10:36:43;101613.03;;;10.69;86.43
61394;BME280;48555;50.952;-0.120;2024-03-06T10:39:11;101610.47;;;10.67;85.71
61394;BME280;48555;50.952;-0.120;2024-03-06T10:41:40;101601.38;;;10.75;86.06
61394;BME280;48555;50.952;-0.120;2024-03-06T10:44:09;101597.00;;;10.89;86.44
61394;BME280;48555;50.952;-0.120;2024-03-06T10:46:40;101602.63;;;10.98;85.98
61394;BME280;48555;50.952;-0.120;2024-03-06T10:49:09;101596.72;;;11.08;85.83
61394;BME280;48555;50.952;-0.120;2024-03-06T10:51:38;101606.56;;;11.19;85.55
61394;BME280;48555;50.952;-0.120;2024-03-06T10:54:06;101607.97;;;11.25;84.93
61394;BME280;48555;50.952;-0.120;2024-03-06T10:56:34;101612.75;;;11.32;84.53
61394;BME280;48555;50.952;-0.120;2024-03-06T10:58:59;101604.78;;;11.34;84.07
61394;BME280;48555;50.952;-0.120;2024-03-06T11:01:25;101606.56;;;11.33;82.96
61394;BME280;48555;50.952;-0.120;2024-03-06T11:03:51;101612.75;;;11.32;82.26
61394;BME280;48555;50.952;-0.120;2024-03-06T11:06:17;101604.22;;;11.14;81.58
61394;BME280;48555;50.952;-0.120;2024-03-06T11:08:43;101615.38;;;11.18;80.89
61394;BME280;48555;50.952;-0.120;2024-03-06T11:11:22;101616.75;;;11.09;80.70
61394;BME280;48555;50.952;-0.120;2024-03-06T11:13:48;101614.88;;;11.11;80.89
61394;BME280;48555;50.952;-0.120;2024-03-06T11:16:14;101615.56;;;11.15;81.05
61394;BME280;48555;50.952;-0.120;2024-03-06T11:23:33;101622.66;;;11.27;81.25
61394;BME280;48555;50.952;-0.120;2024-03-06T11:26:03;101618.16;;;11.29;80.91
61394;BME280;48555;50.952;-0.120;2024-03-06T11:28:32;101620.63;;;11.32;80.89
61394;BME280;48555;50.952;-0.120;2024-03-06T11:31:05;101615.72;;;11.41;80.92
61394;BME280;48555;50.952;-0.120;2024-03-06T11:39:06;101618.91;;;11.60;78.91
61394;BME280;48555;50.952;-0.120;2024-03-06T11:44:01;101619.47;;;11.51;78.22
61394;BME280;48555;50.952;-0.120;2024-03-06T11:46:45;101617.88;;;11.48;78.16
61394;BME280;48555;50.952;-0.120;2024-03-06T11:49:37;101619.28;;;11.54;77.87
61394;BME280;48555;50.952;-0.120;2024-03-06T11:52:04;101613.84;;;11.57;77.35
61394;BME280;48555;50.952;-0.120;2024-03-06T11:54:31;101614.03;;;11.68;77.54
61394;BME280;48555;50.952;-0.120;2024-03-06T11:56:58;101613.47;;;11.77;77.73
61394;BME280;48555;50.952;-0.120;2024-03-06T11:59:29;101624.38;;;11.84;77.69
61394;BME280;48555;50.952;-0.120;2024-03-06T12:01:56;101619.53;;;11.92;77.09
61394;BME280;48555;50.952;-0.120;2024-03-06T12:04:23;101616.25;;;12.03;75.89
61394;BME280;48555;50.952;-0.120;2024-03-06T12:06:49;101618.81;;;12.17;76.21
61394;BME280;48555;50.952;-0.120;2024-03-06T12:09:15;101626.13;;;12.39;76.36
61394;BME280;48555;50.952;-0.120;2024-03-06T12:11:41;101623.78;;;12.62;76.23
61394;BME280;48555;50.952;-0.120;2024-03-06T12:14:13;101626.03;;;12.81;75.69
61394;BME280;48555;50.952;-0.120;2024-03-06T12:16:39;101623.41;;;12.93;74.74
61394;BME280;48555;50.952;-0.120;2024-03-06T12:19:05;101625.81;;;12.96;73.16
61394;BME280;48555;50.952;-0.120;2024-03-06T12:21:31;101621.22;;;13.00;72.30
61394;BME280;48555;50.952;-0.120;2024-03-06T12:24:07;101611.88;;;13.09;72.50
61394;BME280;48555;50.952;-0.120;2024-03-06T12:26:33;101623.13;;;13.24;72.61
61394;BME280;48555;50.952;-0.120;2024-03-06T12:29:09;101614.22;;;13.39;72.48
61394;BME280;48555;50.952;-0.120;2024-03-06T12:31:37;101611.16;;;13.45;71.43
61394;BME280;48555;50.952;-0.120;2024-03-06T12:34:05;101620.16;;;13.41;70.73
61394;BME280;48555;50.952;-0.120;2024-03-06T12:36:31;101616.00;;;13.38;69.56
61394;BME280;48555;50.952;-0.120;2024-03-06T12:39:02;101628.50;;;13.48;69.85
61394;BME280;48555;50.952;-0.120;2024-03-06T12:41:28;101622.19;;;13.50;68.88
61394;BME280;48555;50.952;-0.120;2024-03-06T12:43:54;101625.13;;;13.46;68.33
61394;BME280;48555;50.952;-0.120;2024-03-06T12:46:20;101605.28;;;13.42;68.11
61394;BME280;48555;50.952;-0.120;2024-03-06T12:48:45;101617.56;;;13.54;67.92
61394;BME280;48555;50.952;-0.120;2024-03-06T12:51:11;101618.56;;;13.64;68.02
61394;BME280;48555;50.952;-0.120;2024-03-06T12:53:37;101621.84;;;13.55;65.05
61394;BME280;48555;50.952;-0.120;2024-03-06T12:56:02;101596.66;;;13.39;64.57